Date StartTime U_cm/s V_cm/s W_cm/s Ustd_cm/s Vstd_cm/s Wstd_cm/s Uvar_(cm/s)^2 Vvar_(cm/s)^2 Wvar_(cm/s)^2 KE_(m/s)^2 TurbulentKE_(m/s)^2 HorizWindSpeed_cm/s FrictionSpeec_cm/s DragCoef SpeedOfSound_m/s SonicTemperature_C Pressure_mb 
04/11/2013  21:24:00     -177.726      207.049      -53.111       79.713       84.421       38.073     6354.092     7126.968     1449.574        4.610        0.747      272.866       44.108        0.026      339.254       12.459      859.498
04/11/2013  21:25:00      -69.801      201.987      -21.550       65.405       66.362       37.880     4277.778     4403.951     1434.884        2.812        0.506      213.707       28.856        0.018      339.182       12.337      859.544
04/11/2013  21:26:00     -113.387      138.441      -15.080       65.267       93.546       39.207     4259.836     8750.832     1537.202        2.340        0.727      178.949       41.992        0.055      339.217       12.396      859.554
04/11/2013  21:27:00     -108.020      128.771       -4.926       77.857       69.287       51.154     6061.764     4800.747     2616.686        2.087        0.674      168.078       45.134        0.072      339.212       12.388      859.549
04/11/2013  21:28:00     -172.308      170.188      -39.900       81.114      104.648       48.930     6579.453    10951.212     2394.182        4.008        0.996      242.186       56.773        0.055      339.238       12.431      859.561
04/11/2013  21:29:00     -112.425      167.346      -28.183       55.069       71.985       36.075     3032.552     5181.771     1301.390        2.548        0.476      201.604       29.708        0.022      339.176       12.328      859.566
04/11/2013  21:30:00     -101.489      149.580      -19.956       47.823       73.772       33.828     2287.046     5442.369     1144.323        2.097        0.444      180.760       30.380        0.028      339.189       12.349      859.570
04/11/2013  21:31:00     -156.552      170.652      -26.369      102.033      102.274       54.116    10410.751    10460.027     2928.524        3.906        1.190      231.583       41.977        0.033      339.220       12.401      859.563
04/11/2013  21:32:00     -153.332      197.275      -36.377       77.465       64.139       38.227     6000.884     4113.862     1461.300        3.766        0.579      249.856       36.746        0.022      339.197       12.363      859.572
04/11/2013  21:33:00     -102.230      139.985      -21.904       57.908       69.387       37.436     3353.312     4814.557     1401.442        2.005        0.478      173.340       39.326        0.051      339.180       12.336      859.576
04/11/2013  21:34:00      -91.647      148.471      -14.894       76.867       87.258       46.620     5908.522     7613.894     2173.455        2.318        0.785      174.479       46.932        0.072      339.164       12.307      859.604
04/11/2013  21:35:00      -86.373      109.608      -15.975       45.028       48.588       34.595     2027.514     2360.773     1196.845        1.266        0.279      139.550       33.849        0.059      339.142       12.273      859.606
04/11/2013  21:36:00      -70.618       55.966       -8.577       61.523       60.813       32.123     3785.032     3698.248     1031.907        0.835        0.426       90.106       36.869        0.167      339.113       12.224      859.617
04/11/2013  21:37:00     -114.702       86.253      -20.135       52.142       59.128       37.973     2718.737     3496.087     1441.919        1.433        0.383      143.514       30.190        0.044      339.129       12.250      859.604
04/11/2013  21:38:00     -104.934      115.959      -17.494       58.696       67.863       36.451     3445.224     4605.366     1328.665        1.707        0.469      156.389       33.971        0.047      339.110       12.216      859.593
04/11/2013  21:39:00     -132.676      169.157      -28.681       68.917       66.012       38.292     4749.493     4357.547     1466.271        2.880        0.529      214.982       36.235        0.028      339.094       12.189      859.595
04/11/2013  21:40:00     -143.964      148.024      -29.679       63.114       76.696       43.397     3983.346     5882.343     1883.284        2.763        0.587      206.486       37.185        0.032      339.100       12.201      859.596
04/11/2013  21:41:00     -147.746      146.511      -36.116       76.210       75.930       40.867     5807.979     5765.398     1670.147        2.892        0.662      208.073       43.779        0.044      339.129       12.249      859.605
04/11/2013  21:42:00     -145.563      151.217      -28.027       64.942       72.339       53.000     4217.455     5232.998     2809.010        2.855        0.613      209.894       42.760        0.042      339.111       12.217      859.600
04/11/2013  21:43:00      -93.388      103.676      -10.984       69.880       46.560       34.132     4883.242     2167.837     1165.006        1.390        0.411      139.535       32.234        0.053      339.113       12.224      859.620
04/11/2013  21:44:00     -149.181      153.285      -37.664       73.354       59.812       39.232     5380.854     3577.482     1539.123        2.883        0.525      213.896       33.270        0.024      339.144       12.271      859.628
04/11/2013  21:45:00     -141.579      130.321      -26.151       67.938       79.936       38.391     4615.592     6389.805     1473.881        2.509        0.624      192.427       33.209        0.030      339.139       12.267      859.625
04/11/2013  21:46:00     -157.866      170.468      -36.923       68.721       69.300       47.182     4722.565     4802.469     2226.107        3.355        0.588      232.338       41.594        0.032      339.160       12.300      859.639
04/11/2013  21:47:00     -148.779      132.325      -33.688       62.007       75.763       35.944     3844.885     5740.020     1292.007        2.583        0.544      199.111       44.859        0.051      339.179       12.333      859.635
04/11/2013  21:48:00     -133.860      136.538      -24.997       80.456       69.849       43.408     6473.216     4878.951     1884.286        2.521        0.662      191.209       49.746        0.068      339.188       12.347      859.648
04/11/2013  21:49:00     -137.670      129.732      -16.827       62.541       72.855       37.988     3911.391     5307.820     1443.057        2.336        0.533      189.165       35.268        0.035      339.172       12.322      859.662
04/11/2013  21:50:00     -116.776      114.096      -23.038       43.215       46.548       30.031     1867.546     2166.715      901.869        1.606        0.247      163.262       23.045        0.020      339.156       12.295      859.667
04/11/2013  21:51:00     -111.734      144.044      -29.920       49.432       58.398       36.914     2443.531     3410.372     1362.652        2.067        0.361      182.299       31.267        0.029      339.146       12.279      859.690
04/11/2013  21:52:00      -89.119      172.861      -24.571       53.016       56.538       33.393     2810.744     3196.546     1115.122        2.277        0.356      194.482       29.468        0.023      339.134       12.257      859.689
04/11/2013  21:53:00     -123.656      117.332      -13.427       63.092       51.174       38.814     3980.646     2618.807     1506.506        1.867        0.405      170.463       30.784        0.033      339.117       12.230      859.694
04/11/2013  21:54:00      -58.142      176.595      -16.481       73.749       61.081       43.140     5438.864     3730.894     1861.032        2.293        0.552      185.920       35.904        0.037      339.099       12.199      859.699
04/11/2013  21:55:00      -56.200      207.235      -21.099       44.696       55.091       24.461     1997.702     3034.963      598.350        2.609        0.282      214.720       21.518        0.010      339.120       12.233      859.691
04/11/2013  21:56:00      -50.896      196.016      -20.700       29.875       68.983       26.820      892.531     4758.611      719.337        2.390        0.319      202.516       26.295        0.017      339.101       12.200      859.697
04/11/2013  21:57:00      -72.045       91.288      -10.707       55.600       60.365       31.423     3091.341     3643.926      987.408        1.068        0.386      116.292       34.828        0.090      339.071       12.150      859.708
04/11/2013  21:58:00      -73.880      145.192      -19.308       60.746       45.208       34.614     3690.096     2043.738     1198.141        1.692        0.347      162.908       27.690        0.029      339.083       12.172      859.710
04/11/2013  21:59:00      -84.302      206.631      -28.229       59.633       53.835       37.267     3556.053     2898.185     1388.841        2.922        0.392      223.166       31.502        0.020      339.149       12.282      859.712
04/11/2013  22:00:00     -113.997      173.732      -23.504       62.322       78.488       43.038     3884.035     6160.311     1852.308        2.781        0.595      207.793       32.879        0.025      339.109       12.215      859.727
04/11/2013  22:01:00      -60.315      172.466      -11.263       31.280       71.809       31.031      978.427     5156.493      962.953        2.030        0.355      182.709       31.239        0.029      339.083       12.171      859.719
04/11/2013  22:02:00      -75.631       51.219       -6.817       33.040       27.837       26.814     1091.663      774.915      718.971        0.549        0.129       91.342       18.201        0.040      339.105       12.212      859.728
04/11/2013  22:03:00      -57.046      113.228      -16.171       33.251       42.971       24.860     1105.609     1846.521      618.040        0.995        0.179      126.787       20.628        0.026      339.126       12.245      859.742
04/11/2013  22:04:00      -93.551       82.039      -17.202       49.282       44.237       25.735     2428.756     1956.951      662.282        1.041        0.252      124.427       20.087        0.026      339.087       12.180      859.739
04/11/2013  22:05:00     -110.110      125.969      -28.229       54.249       37.635       37.331     2942.981     1416.387     1393.613        1.727        0.288      167.309       28.957        0.030      339.066       12.145      859.734
04/11/2013  22:06:00     -101.688       91.094      -24.327       53.791       41.535       26.771     2893.448     1725.180      716.660        1.228        0.267      136.523       26.471        0.038      339.066       12.145      859.737
04/11/2013  22:07:00      -82.979       73.608      -18.716       46.009       48.054       27.922     2116.801     2309.139      779.615        0.893        0.260      110.922       26.957        0.059      339.121       12.238      859.745
04/11/2013  22:08:00      -82.547      117.383      -19.281       74.495       57.761       36.598     5549.490     3336.390     1339.439        1.559        0.511      143.502       41.242        0.083      339.078       12.163      859.767
04/11/2013  22:09:00      -72.707       88.895      -12.715       40.910       46.492       25.487     1673.619     2161.506      649.577        0.892        0.224      114.842       24.410        0.045      339.050       12.118      859.785
04/11/2013  22:10:00     -106.847      114.608      -22.914       36.519       57.217       30.314     1333.640     3273.756      918.918        1.530        0.276      156.689       25.693        0.027      339.062       12.138      859.799
04/11/2013  22:11:00      -66.266       63.665       -7.164       63.898       62.352       26.758     4083.014     3887.779      716.011        0.859        0.434       91.894       29.082        0.100      339.071       12.155      859.827
04/11/2013  22:12:00      -69.170       83.993      -19.867       55.586       48.643       26.871     3089.818     2366.113      722.025        0.920        0.309      108.808       27.896        0.066      339.025       12.076      859.844
04/11/2013  22:13:00      -92.080      111.350      -20.543       39.680       60.724       33.695     1574.530     3687.452     1135.360        1.385        0.320      144.490       29.327        0.041      339.032       12.087      859.850
04/11/2013  22:14:00      -89.142       80.136      -18.711       44.215       47.995       28.090     1954.954     2303.478      789.060        0.988        0.252      119.867       21.309        0.032      339.047       12.113      859.844
04/11/2013  22:15:00     -102.891       76.997      -25.078       33.433       58.253       26.184     1117.751     3393.430      685.596        1.117        0.260      128.511       19.256        0.022      339.095       12.194      859.831
04/11/2013  22:16:00      -89.825       69.490       -9.297       49.944       59.235       31.142     2494.364     3508.743      969.807        0.998        0.349      113.567       26.569        0.055      339.093       12.189      859.817
04/11/2013  22:17:00      -57.204       82.843       -6.743       43.741       59.615       29.916     1913.232     3553.912      894.977        0.827        0.318      100.674        7.940        0.006      338.998       12.031      859.826
04/11/2013  22:18:00     -100.257       92.009      -22.057       47.622       40.041       23.296     2267.830     1603.244      542.720        1.171        0.221      136.077        7.271        0.003      339.024       12.075      859.821
04/11/2013  22:19:00     -120.451      192.687      -31.300       50.520       64.955       39.833     2552.274     4219.196     1586.637        3.049        0.418      227.237       29.627        0.017      339.000       12.031      859.812
04/11/2013  22:20:00     -137.418       93.777      -26.124       46.417       54.495       30.188     2154.542     2969.653      911.297        1.720        0.302      166.366       26.511        0.025      338.991       12.018      859.806
04/11/2013  22:21:00      -57.171       75.468       -3.490       54.114       41.666       29.420     2928.327     1736.071      865.538        0.725        0.276       94.678       25.467        0.072      338.971       11.985      859.810
04/11/2013  22:22:00      -98.971       64.895       -9.172       52.828       64.872       35.224     2790.840     4208.398     1240.719        1.116        0.412      118.349       33.450        0.080      339.019       12.065      859.818
04/11/2013  22:23:00     -134.630      131.387      -29.803       56.229       67.836       33.838     3161.725     4601.667     1145.003        2.259        0.445      188.117       28.920        0.024      338.989       12.013      859.815
04/11/2013  22:24:00     -130.073       79.640      -16.354       63.513       92.204       38.774     4033.916     8501.614     1503.421        1.878        0.702      152.517       38.360        0.063      339.052       12.120      859.800
04/11/2013  22:25:00     -112.124       94.033      -25.589       49.621       58.101       29.683     2462.282     3375.680      881.091        1.439        0.336      146.336       22.557        0.024      339.028       12.081      859.792
04/11/2013  22:26:00     -103.516      118.510      -23.824       44.452       58.278       33.819     1975.985     3396.286     1143.751        1.592        0.326      157.354       23.152        0.022      339.046       12.110      859.771
04/11/2013  22:27:00     -174.942      117.679      -35.495       59.563       57.148       37.572     3547.763     3265.907     1411.666        2.697        0.411      210.839       27.516        0.017      339.011       12.050      859.775
04/11/2013  22:28:00      -47.189      122.334        5.311       68.970       63.439       33.445     4756.796     4024.475     1118.575        1.356        0.495      131.119       28.676        0.048      338.917       11.894      859.763
04/11/2013  22:29:00      -98.032      116.240      -24.704       63.006       43.063       32.646     3969.755     1854.435     1065.790        1.531        0.344      152.060       35.784        0.055      338.980       11.999      859.767
04/11/2013  22:30:00      -44.070       54.368       -1.152       44.815       40.533       30.228     2008.428     1642.923      913.730        0.473        0.228       69.986       22.787        0.106      338.914       11.890      859.764
04/11/2013  22:31:00      -52.876      -40.002        6.237       39.754       38.112       24.769     1580.361     1452.515      613.497        0.404        0.182       66.303       23.427        0.125      338.981       12.003      859.771
04/11/2013  22:32:00       -0.473       -1.596        3.167       15.602       23.366       18.336      243.407      545.969      336.216        0.057        0.056        1.664       14.766       78.740      338.859       11.795      859.780
04/11/2013  22:33:00       41.413       28.836       -2.390       19.138       25.770       31.108      366.251      664.099      967.736        0.227        0.100       50.463       13.750        0.074      338.912       11.886      859.803
04/11/2013  22:34:00       -0.474        1.728        2.420       26.583       18.941       21.792      706.642      358.753      474.873        0.077        0.077        1.792       14.525       65.715      338.929       11.915      859.803
04/11/2013  22:35:00      -12.232       22.957       36.089       17.787       29.700       29.811      316.369      882.082      888.682        0.203        0.104       26.013       25.356        0.950      338.812       11.717      859.799
04/11/2013  22:36:00        1.402      -58.581       27.872       43.426       51.052       39.553     1885.799     2606.261     1564.466        0.513        0.303       58.598       30.065        0.263      338.864       11.804      859.792
04/11/2013  22:37:00       80.164      -79.958      -22.648       49.312       44.196       37.460     2431.696     1953.304     1403.272        0.956        0.289      113.224       29.977        0.070      338.779       11.663      859.794
04/11/2013  22:38:00       64.814      -51.674        0.384       61.591       50.381       36.201     3793.414     2538.247     1310.502        0.726        0.382       82.892       39.741        0.230      338.703       11.535      859.791
04/11/2013  22:39:00      -17.524      -26.813       16.909       37.105       32.914       31.314     1376.818     1083.358      980.551        0.238        0.172       32.031       28.430        0.788      338.648       11.442      859.781
04/11/2013  22:40:00      -24.909       -1.059       13.686       24.756       29.067       21.755      612.880      844.904      473.285        0.137        0.097       24.931       13.247        0.282      338.604       11.368      859.784
04/11/2013  22:41:00      -33.322       47.339       14.937       15.270       24.015       19.595      233.167      576.720      383.963        0.238        0.060       57.891       15.004        0.067      338.559       11.294      859.799
04/11/2013  22:42:00      -22.945       25.736       -7.374       17.608       25.294        9.459      310.040      639.779       89.480        0.114        0.052       34.480        7.763        0.051      338.598       11.358      859.805
04/11/2013  22:43:00      -11.540       14.878       -0.937       12.858       16.672       10.955      165.336      277.951      120.017        0.046        0.028       18.828        4.788        0.065      338.525       11.237      859.803
04/11/2013  22:44:00       -3.954       28.448       -3.787        9.624       11.856       12.652       92.620      140.557      160.064        0.062        0.020       28.721        8.890        0.096      338.547       11.272      859.796
04/11/2013  22:45:00       -6.246        1.873       -4.449        5.105        9.745        4.997       26.065       94.962       24.968        0.010        0.007        6.521        3.758        0.332      338.564       11.300      859.783
04/11/2013  22:46:00      -19.609      -12.216       -6.479       14.262       13.421        7.267      203.415      180.132       52.804        0.051        0.022       23.103        3.700        0.026      338.673       11.482      859.770
04/11/2013  22:47:00       -0.712      -24.338       -0.184       10.674       16.625       11.465      113.945      276.385      131.439        0.056        0.026       24.348        9.744        0.160      338.737       11.591      859.750
04/11/2013  22:48:00      -23.282      -10.436       -2.961       18.807       14.485       10.337      353.708      209.830      106.864        0.066        0.034       25.514        6.092        0.057      338.695       11.520      859.737
04/11/2013  22:49:00      -16.348      -39.748        1.920       31.489       27.459       12.397      991.564      754.022      153.676        0.187        0.095       42.979        5.905        0.019      338.719       11.561      859.730
04/11/2013  22:50:00      -23.474      -39.844       -5.738       24.496       27.065       10.429      600.037      732.538      108.765        0.181        0.072       46.245       12.641        0.075      338.736       11.589      859.719
04/11/2013  22:51:00      -16.528     -104.324       -0.843       24.528       30.357       14.644      601.606      921.554      214.439        0.645        0.087      105.625       11.464        0.012      338.810       11.713      859.709
04/11/2013  22:52:00      -40.000      -68.555       -5.158       30.032       24.255       20.275      901.936      588.324      411.082        0.411        0.095       79.372       12.653        0.025      338.753       11.619      859.705
04/11/2013  22:53:00      -21.502      -54.397        1.266       14.657       17.205       22.267      214.840      296.010      495.836        0.221        0.050       58.492       10.277        0.031      338.678       11.493      859.698
04/11/2013  22:54:00       -3.394      -26.375      -15.081        9.627       17.053       14.182       92.673      290.822      201.138        0.076        0.029       26.592        8.889        0.112      338.746       11.607      859.688
04/11/2013  22:55:00      -26.739      -24.793      -13.067       19.573       22.019       18.153      383.100      484.845      329.533        0.135        0.060       36.465       11.246        0.095      338.759       11.627      859.676
04/11/2013  22:56:00       -8.285      -18.172        5.423       11.894       12.333        7.120      141.464      152.112       50.691        0.039        0.017       19.972        5.940        0.088      338.780       11.662      859.667
04/11/2013  22:57:00      -11.389      -39.418       -7.881       19.704       23.387       10.717      388.267      546.960      114.859        0.140        0.053       41.031        9.688        0.056      338.778       11.659      859.656
04/11/2013  22:58:00      -42.888      -30.018        5.702       43.032       22.849       17.509     1851.731      522.074      306.558        0.273        0.134       52.350       17.108        0.107      338.627       11.407      859.643
04/11/2013  22:59:00      -67.460      -53.691       -3.373       20.755       15.867       14.166      430.774      251.771      200.678        0.416        0.044       86.218       10.518        0.015      338.632       11.415      859.633
04/11/2013  23:00:00      -38.662      -24.281        4.894       30.380       18.947       16.458      922.931      358.976      270.879        0.183        0.078       45.655       13.021        0.081      338.710       11.547      859.623
04/11/2013  23:01:00      -33.930      -68.698       -4.430       22.498       21.719       13.575      506.153      471.704      184.279        0.353        0.058       76.620       12.223        0.025      338.659       11.460      859.612
04/11/2013  23:02:00      -77.868      -63.906       -1.993       28.565       25.709       19.532      815.971      660.971      381.485        0.600        0.093      100.734       13.943        0.019      338.653       11.450      859.585
04/11/2013  23:03:00      -26.285      -52.958        7.426       47.412       28.570       24.246     2247.916      816.245      587.869        0.360        0.183       59.123       23.875        0.163      338.634       11.418      859.561
04/11/2013  23:04:00      -71.891      -89.786       -8.892       28.465       30.492       18.605      810.229      929.733      346.150        0.770        0.104      115.021       19.113        0.028      338.601       11.362      859.537
04/11/2013  23:05:00      -55.078      -27.840        7.176       33.362       24.355       17.187     1113.038      593.169      295.391        0.293        0.100       61.714       15.674        0.065      338.587       11.339      859.525
04/11/2013  23:06:00      -82.716      -50.727        1.312       42.674       28.753       13.870     1821.070      826.730      192.367        0.613        0.142       97.032       12.661        0.017      338.498       11.190      859.524
04/11/2013  23:07:00      -34.363      -23.367        7.213       41.676       24.952       17.217     1736.850      622.600      296.410        0.222        0.133       41.555       15.757        0.144      338.469       11.142      859.523
04/11/2013  23:08:00      -32.308      -14.294       11.077       29.739       19.604       15.517      884.388      384.331      240.768        0.144        0.075       35.329       13.922        0.155      338.449       11.108      859.511
04/11/2013  23:09:00      -23.817      -23.098       10.943       32.764       19.522       18.269     1073.490      381.105      333.772        0.150        0.089       33.178       19.781        0.355      338.452       11.112      859.492
04/11/2013  23:10:00       -0.819      -11.376       15.806       29.300       18.561       16.041      858.470      344.497      257.328        0.092        0.073       11.406       18.423        2.609      338.472       11.146      859.461
04/11/2013  23:11:00      -14.476      -34.982        8.006       39.105       51.582       16.738     1529.210     2660.655      280.175        0.298        0.224       37.859       13.791        0.133      338.463       11.131      859.434
04/11/2013  23:12:00      -75.721     -110.308       -7.465       36.754       52.842       27.731     1350.857     2792.325      769.034        1.143        0.246      133.797       22.987        0.030      338.389       11.008      859.397
04/11/2013  23:13:00      -15.050      -44.524        8.387       44.035       36.945       28.659     1939.065     1364.947      821.326        0.320        0.206       46.999       27.201        0.335      338.410       11.043      859.365
04/11/2013  23:14:00      -40.346      -32.972       18.219       56.937       35.034       28.558     3241.799     1227.360      815.556        0.416        0.264       52.105       28.898        0.308      338.292       10.845      859.339
04/11/2013  23:15:00      -78.654      -67.146        1.601       56.037       35.271       29.281     3140.145     1244.065      857.399        0.797        0.262      103.416       20.185        0.038      338.320       10.889      859.322
04/11/2013  23:16:00      -89.843      -90.113        7.668       55.882       37.654       34.370     3122.771     1417.803     1181.317        1.099        0.286      127.248       29.375        0.053      338.333       10.913      859.306
04/11/2013  23:17:00      -80.478      -74.713       -4.193       60.211       45.867       30.250     3625.318     2103.751      915.089        0.936        0.332      109.812       23.122        0.044      338.299       10.856      859.299
04/11/2013  23:18:00      -48.786      -42.825       16.303       55.403       37.169       28.968     3069.536     1381.503      839.151        0.488        0.265       64.916       26.867        0.171      338.263       10.796      859.296
04/11/2013  23:19:00      -67.053      -61.927        8.103       52.877       35.973       34.667     2795.960     1294.033     1201.825        0.684        0.265       91.275       32.777        0.129      338.277       10.820      859.292
04/11/2013  23:20:00     -111.113      -92.602       -7.582       53.710       52.418       33.026     2884.717     2747.616     1090.711        1.385        0.336      144.641       29.719        0.042      338.270       10.807      859.299
04/11/2013  23:21:00     -112.771      -82.475        6.772       56.695       40.578       32.984     3214.327     1646.553     1087.941        1.276        0.297      139.712       30.682        0.048      338.230       10.740      859.297
04/11/2013  23:22:00      -52.160      -50.953        8.332       57.708       39.758       27.276     3330.260     1580.681      743.994        0.552        0.283       72.916       19.525        0.072      338.279       10.822      859.276
04/11/2013  23:23:00      -51.172      -58.691       10.982       60.961       46.522       32.963     3716.238     2164.293     1086.529        0.657        0.348       77.867       31.909        0.168      338.180       10.656      859.256
04/11/2013  23:24:00      -66.442      -56.357        9.383       76.195       58.057       35.767     5805.608     3370.661     1279.294        0.907        0.523       87.124       34.565        0.157      338.135       10.580      859.234
04/11/2013  23:25:00      -99.180      -59.427        3.822       52.037       53.670       31.719     2707.847     2880.480     1006.064        0.999        0.330      115.620       27.767        0.058      338.090       10.504      859.232
04/11/2013  23:26:00      -81.500      -79.222       14.304       63.652       49.342       30.933     4051.600     2434.639      956.823        1.028        0.372      113.659       23.418        0.042      338.101       10.524      859.221
04/11/2013  23:27:00     -122.445     -126.168       -4.896       62.819       52.680       34.798     3946.288     2775.195     1210.920        1.943        0.397      175.816       34.972        0.040      338.050       10.437      859.191
04/11/2013  23:28:00     -135.911     -125.963      -15.154       53.115       46.334       29.624     2821.220     2146.818      877.579        2.021        0.292      185.307       24.297        0.017      337.976       10.313      859.163
04/11/2013  23:29:00     -161.282     -126.289      -10.259       70.438       50.326       30.225     4961.479     2532.692      913.559        2.524        0.420      204.844       26.878        0.017      337.914       10.207      859.126
04/11/2013  23:30:00     -114.246     -103.542       -1.947       60.690       61.348       37.185     3683.248     3763.518     1382.711        1.630        0.441      154.185       34.249        0.049      337.896       10.179      859.099
04/11/2013  23:31:00     -117.643     -138.070       -0.599       58.520       50.338       38.262     3424.612     2533.917     1463.998        2.016        0.371      181.392       39.063        0.046      337.925       10.227      859.080
04/11/2013  23:32:00     -165.984     -134.080      -14.467       36.794       41.351       25.551     1353.764     1709.895      652.850        2.473        0.186      213.373       12.815        0.004      337.894       10.175      859.079
04/11/2013  23:33:00     -107.575      -94.854       -1.729       47.913       44.987       27.413     2295.627     2023.801      751.490        1.282        0.254      143.421       21.107        0.022      337.899       10.186      859.074
04/11/2013  23:34:00      -84.417      -74.172        2.700       45.066       35.708       28.337     2030.921     1275.037      802.994        0.837        0.205      112.373       26.358        0.055      337.826       10.062      859.083
04/11/2013  23:35:00      -43.597      -24.371        3.647       35.921       43.441       22.197     1290.288     1887.116      492.686        0.309        0.184       49.946       20.907        0.175      337.673        9.805      859.101
04/11/2013  23:36:00      -96.874       -2.941       -1.791       54.865       25.379       20.995     3010.156      644.112      440.803        0.675        0.205       96.919       25.034        0.067      337.413        9.370      859.109
04/11/2013  23:37:00     -109.047      -15.816       -3.703       27.603       28.143       18.035      761.920      792.012      325.263        0.702        0.094      110.188       14.263        0.017      337.429        9.398      859.117
04/11/2013  23:38:00      -91.930       -3.507       -1.685       34.412       29.590       18.850     1184.161      875.576      355.327        0.544        0.121       91.996       17.794        0.037      337.402        9.351      859.155
04/11/2013  23:39:00     -116.185       -7.868       -6.537       17.628       21.929       12.153      310.755      480.865      147.694        0.727        0.047      116.451        7.107        0.004      337.447        9.428      859.195
04/11/2013  23:40:00      -79.576       -3.972       -7.136       24.130       28.430       16.073      582.249      808.279      258.326        0.402        0.082       79.675       11.889        0.022      337.418        9.378      859.224
04/11/2013  23:41:00      -74.640      -15.571      -10.999       23.879       26.382       16.604      570.186      696.030      275.707        0.374        0.077       76.247       14.571        0.037      337.447        9.427      859.258
04/11/2013  23:42:00      -70.211       -3.796        0.075       31.748       21.573       20.271     1007.967      465.397      410.920        0.341        0.094       70.314       21.664        0.095      337.386        9.327      859.291
04/11/2013  23:43:00      -70.318       41.062      -15.671       26.682       32.595       17.845      711.938     1062.457      318.461        0.448        0.105       81.430       15.296        0.035      337.398        9.345      859.302
04/11/2013  23:44:00      -68.800       35.733      -13.461       18.823       25.064       16.454      354.312      628.215      270.747        0.372        0.063       77.526       11.741        0.023      337.475        9.472      859.305
04/11/2013  23:45:00      -61.266       11.517      -13.934       15.224       32.725       14.356      231.773     1070.946      206.109        0.279        0.075       62.339       12.325        0.039      337.605        9.692      859.309
04/11/2013  23:46:00      -56.132      -10.223       -3.135       20.799       17.786       12.741      432.610      316.330      162.322        0.209        0.046       57.055       12.613        0.049      337.593        9.672      859.298
04/11/2013  23:47:00      -49.955       -8.350      -13.093       21.044       21.772        9.157      442.862      474.027       83.856        0.187        0.050       50.649        9.359        0.034      337.653        9.772      859.279
04/11/2013  23:48:00      -51.838       12.271       -5.464       31.342       18.508       17.787      982.327      342.558      316.393        0.225        0.082       53.270       20.249        0.144      338.116       10.549      859.263
04/11/2013  23:49:00      -26.315      -14.035        1.464       19.611       17.285        7.583      384.597      298.784       57.504        0.082        0.037       29.824        7.655        0.066      337.886       10.161      859.238
04/11/2013  23:50:00      -41.823      -11.391       -5.923       11.253        8.489        9.538      126.622       72.063       90.969        0.110        0.014       43.346        2.992        0.005      337.629        9.732      859.212
04/11/2013  23:51:00      -70.782      -18.897      -10.785       10.829       12.536       10.495      117.262      157.143      110.152        0.293        0.019       73.261        4.368        0.004      337.416        9.375      859.198
04/11/2013  23:52:00      -91.116      -29.990      -11.633       13.284       10.792        7.398      176.460      116.469       54.729        0.484        0.017       95.925        4.990        0.003      337.414        9.370      859.192
04/11/2013  23:53:00      -91.821      -12.110      -10.148       14.922       14.091       11.483      222.657      198.545      131.855        0.462        0.028       92.616        8.220        0.008      337.381        9.316      859.189
04/11/2013  23:54:00      -97.009       -7.683      -11.749       21.372       14.450       12.709      456.765      208.796      161.519        0.522        0.041       97.313       11.424        0.014      337.336        9.242      859.190
04/11/2013  23:55:00      -53.087      -26.504       -1.290       21.104       19.266       12.723      445.396      371.193      161.868        0.225        0.049       59.335       10.685        0.032      337.297        9.176      859.205
04/11/2013  23:56:00      -59.383      -17.988       -6.923       12.075       12.573        7.948      145.807      158.084       63.170        0.213        0.018       62.047        5.975        0.009      337.260        9.114      859.216
04/11/2013  23:57:00      -18.242      -13.848        0.527       30.600       12.182        5.795      936.336      148.391       33.580        0.082        0.056       22.903        9.884        0.186      337.195        9.006      859.232
04/11/2013  23:58:00       46.017       22.012        4.281       12.631        9.352        9.102      159.544       87.451       82.841        0.148        0.016       51.010        6.516        0.016      337.204        9.021      859.257
04/11/2013  23:59:00       32.277       19.740        0.398       10.420       16.575       12.168      108.578      274.742      148.061        0.098        0.027       37.835        7.429        0.039      337.108        8.859      859.292
